sensor_id;sensor_type;location;lat;lon;timestamp;P1;durP1;ratioP1;P2;durP2;ratioP2
72924;SDS011;61070;50.794;7.054;2023-02-22T00:00:48;265.63;;;49.13;;
72924;SDS011;61070;50.794;7.054;2023-02-22T00:05:49;399.80;;;53.35;;
72924;SDS011;61070;50.794;7.054;2023-02-22T00:08:17;495.40;;;57.90;;
72924;SDS011;61070;50.794;7.054;2023-02-22T00:10:44;224.90;;;48.08;;
72924;SDS011;61070;50.794;7.054;2023-02-22T00:13:10;380.38;;;51.03;;
72924;SDS011;61070;50.794;7.054;2023-02-22T00:15:38;428.75;;;54.53;;
72924;SDS011;61070;50.794;7.054;2023-02-22T00:18:05;325.08;;;47.22;;
72924;SDS011;61070;50.794;7.054;2023-02-22T00:20:34;295.10;;;47.47;;
72924;SDS011;61070;50.794;7.054;2023-02-22T00:23:03;385.15;;;48.38;;
72924;SDS011;61070;50.794;7.054;2023-02-22T00:25:31;252.80;;;42.60;;
72924;SDS011;61070;50.794;7.054;2023-02-22T00:27:57;249.80;;;40.42;;
72924;SDS011;61070;50.794;7.054;2023-02-22T00:30:23;233.05;;;42.58;;
72924;SDS011;61070;50.794;7.054;2023-02-22T00:32:53;246.25;;;40.95;;
72924;SDS011;61070;50.794;7.054;2023-02-22T00:35:20;175.50;;;38.78;;
72924;SDS011;61070;50.794;7.054;2023-02-22T00:37:47;485.20;;;49.80;;
72924;SDS011;61070;50.794;7.054;2023-02-22T00:40:15;429.48;;;46.20;;
72924;SDS011;61070;50.794;7.054;2023-02-22T00:42:43;221.18;;;37.47;;
72924;SDS011;61070;50.794;7.054;2023-02-22T00:45:10;262.85;;;37.05;;
72924;SDS011;61070;50.794;7.054;2023-02-22T00:47:37;215.43;;;37.75;;
72924;SDS011;61070;50.794;7.054;2023-02-22T00:50:02;144.13;;;36.60;;
72924;SDS011;61070;50.794;7.054;2023-02-22T00:52:28;333.40;;;39.95;;
72924;SDS011;61070;50.794;7.054;2023-02-22T00:54:54;399.20;;;42.00;;
72924;SDS011;61070;50.794;7.054;2023-02-22T00:57:21;415.90;;;43.10;;
72924;SDS011;61070;50.794;7.054;2023-02-22T00:59:46;258.60;;;38.25;;
72924;SDS011;61070;50.794;7.054;2023-02-22T01:02:12;171.68;;;37.30;;
72924;SDS011;61070;50.794;7.054;2023-02-22T01:04:37;508.67;;;50.45;;
72924;SDS011;61070;50.794;7.054;2023-02-22T01:07:03;291.27;;;37.35;;
72924;SDS011;61070;50.794;7.054;2023-02-22T01:09:28;308.92;;;39.60;;
72924;SDS011;61070;50.794;7.054;2023-02-22T01:11:54;455.70;;;45.47;;
72924;SDS011;61070;50.794;7.054;2023-02-22T01:14:21;272.73;;;39.40;;
72924;SDS011;61070;50.794;7.054;2023-02-22T01:16:47;343.27;;;42.78;;
72924;SDS011;61070;50.794;7.054;2023-02-22T01:19:14;199.43;;;36.60;;
72924;SDS011;61070;50.794;7.054;2023-02-22T01:21:40;237.82;;;38.08;;
72924;SDS011;61070;50.794;7.054;2023-02-22T01:24:05;322.40;;;40.25;;
72924;SDS011;61070;50.794;7.054;2023-02-22T01:26:31;320.95;;;38.60;;
72924;SDS011;61070;50.794;7.054;2023-02-22T01:28:56;242.80;;;36.42;;
72924;SDS011;61070;50.794;7.054;2023-02-22T01:31:21;325.55;;;40.25;;
72924;SDS011;61070;50.794;7.054;2023-02-22T01:33:48;172.38;;;33.70;;
72924;SDS011;61070;50.794;7.054;2023-02-22T01:36:14;313.52;;;37.88;;
72924;SDS011;61070;50.794;7.054;2023-02-22T01:38:40;318.13;;;39.85;;
72924;SDS011;61070;50.794;7.054;2023-02-22T01:41:05;300.95;;;39.47;;
72924;SDS011;61070;50.794;7.054;2023-02-22T01:43:31;218.88;;;35.28;;
72924;SDS011;61070;50.794;7.054;2023-02-22T01:46:18;231.90;;;35.05;;
72924;SDS011;61070;50.794;7.054;2023-02-22T01:48:47;288.13;;;37.38;;
72924;SDS011;61070;50.794;7.054;2023-02-22T01:51:26;110.97;;;29.20;;
72924;SDS011;61070;50.794;7.054;2023-02-22T01:53:58;305.67;;;36.85;;
72924;SDS011;61070;50.794;7.054;2023-02-22T01:56:29;305.67;;;36.38;;
72924;SDS011;61070;50.794;7.054;2023-02-22T01:59:03;302.67;;;35.10;;
72924;SDS011;61070;50.794;7.054;2023-02-22T02:01:37;261.10;;;29.73;;
72924;SDS011;61070;50.794;7.054;2023-02-22T02:04:07;270.17;;;32.20;;
72924;SDS011;61070;50.794;7.054;2023-02-22T02:06:35;230.50;;;29.75;;
72924;SDS011;61070;50.794;7.054;2023-02-22T02:11:38;254.18;;;30.40;;
72924;SDS011;61070;50.794;7.054;2023-02-22T02:14:05;285.17;;;30.17;;
72924;SDS011;61070;50.794;7.054;2023-02-22T02:16:40;133.15;;;25.83;;
72924;SDS011;61070;50.794;7.054;2023-02-22T02:19:11;104.53;;;24.23;;
72924;SDS011;61070;50.794;7.054;2023-02-22T02:22:05;143.05;;;29.35;;
72924;SDS011;61070;50.794;7.054;2023-02-22T02:25:07;300.58;;;29.52;;
72924;SDS011;61070;50.794;7.054;2023-02-22T02:36:02;345.30;;;31.35;;
72924;SDS011;61070;50.794;7.054;2023-02-22T02:43:57;178.13;;;25.85;;
72924;SDS011;61070;50.794;7.054;2023-02-22T02:49:01;261.63;;;26.42;;
72924;SDS011;61070;50.794;7.054;2023-02-22T02:51:33;304.15;;;29.00;;
72924;SDS011;61070;50.794;7.054;2023-02-22T02:54:02;139.30;;;22.40;;
72924;SDS011;61070;50.794;7.054;2023-02-22T02:56:28;203.15;;;23.75;;
72924;SDS011;61070;50.794;7.054;2023-02-22T02:58:55;163.82;;;22.70;;
72924;SDS011;61070;50.794;7.054;2023-02-22T03:09:19;144.63;;;20.30;;
72924;SDS011;61070;50.794;7.054;2023-02-22T03:11:59;114.05;;;20.90;;
72924;SDS011;61070;50.794;7.054;2023-02-22T03:14:34;151.93;;;22.45;;
72924;SDS011;61070;50.794;7.054;2023-02-22T03:17:15;289.77;;;28.92;;
72924;SDS011;61070;50.794;7.054;2023-02-22T03:19:58;162.90;;;26.23;;
72924;SDS011;61070;50.794;7.054;2023-02-22T03:25:32;223.40;;;27.90;;
72924;SDS011;61070;50.794;7.054;2023-02-22T03:28:03;221.52;;;29.00;;
72924;SDS011;61070;50.794;7.054;2023-02-22T03:30:44;214.00;;;28.42;;
72924;SDS011;61070;50.794;7.054;2023-02-22T03:33:19;389.63;;;36.63;;
72924;SDS011;61070;50.794;7.054;2023-02-22T03:35:54;371.85;;;35.50;;
72924;SDS011;61070;50.794;7.054;2023-02-22T03:38:24;198.45;;;29.80;;
72924;SDS011;61070;50.794;7.054;2023-02-22T03:40:53;338.95;;;34.45;;
72924;SDS011;61070;50.794;7.054;2023-02-22T03:43:24;208.88;;;32.58;;
72924;SDS011;61070;50.794;7.054;2023-02-22T03:45:54;210.65;;;30.75;;
72924;SDS011;61070;50.794;7.054;2023-02-22T03:48:23;258.67;;;31.55;;
72924;SDS011;61070;50.794;7.054;2023-02-22T03:50:50;307.73;;;35.13;;
72924;SDS011;61070;50.794;7.054;2023-02-22T03:53:17;226.13;;;33.40;;
72924;SDS011;61070;50.794;7.054;2023-02-22T03:55:44;156.88;;;30.48;;
72924;SDS011;61070;50.794;7.054;2023-02-22T03:58:19;185.02;;;32.75;;
72924;SDS011;61070;50.794;7.054;2023-02-22T04:00:46;363.83;;;37.78;;
72924;SDS011;61070;50.794;7.054;2023-02-22T04:03:16;310.35;;;35.90;;
72924;SDS011;61070;50.794;7.054;2023-02-22T04:05:42;221.02;;;31.98;;
72924;SDS011;61070;50.794;7.054;2023-02-22T04:08:08;248.55;;;34.00;;
72924;SDS011;61070;50.794;7.054;2023-02-22T04:10:33;237.40;;;34.00;;
72924;SDS011;61070;50.794;7.054;2023-02-22T04:13:01;412.65;;;40.38;;
72924;SDS011;61070;50.794;7.054;2023-02-22T04:15:27;271.10;;;37.05;;
72924;SDS011;61070;50.794;7.054;2023-02-22T04:17:52;180.05;;;33.97;;
72924;SDS011;61070;50.794;7.054;2023-02-22T04:20:18;153.50;;;31.75;;
72924;SDS011;61070;50.794;7.054;2023-02-22T04:22:44;144.52;;;31.45;;
72924;SDS011;61070;50.794;7.054;2023-02-22T04:25:10;229.63;;;34.83;;
72924;SDS011;61070;50.794;7.054;2023-02-22T04:27:35;120.05;;;33.03;;
72924;SDS011;61070;50.794;7.054;2023-02-22T04:30:00;110.47;;;31.55;;
72924;SDS011;61070;50.794;7.054;2023-02-22T04:32:25;134.25;;;31.77;;
72924;SDS011;61070;50.794;7.054;2023-02-22T04:34:51;236.95;;;36.25;;
72924;SDS011;61070;50.794;7.054;2023-02-22T04:37:16;143.30;;;29.58;;
72924;SDS011;61070;50.794;7.054;2023-02-22T04:39:41;181.52;;;31.33;;
72924;SDS011;61070;50.794;7.054;2023-02-22T04:42:07;168.00;;;30.48;;
72924;SDS011;61070;50.794;7.054;2023-02-22T04:44:32;131.13;;;30.65;;
72924;SDS011;61070;50.794;7.054;2023-02-22T04:46:57;209.75;;;32.45;;
72924;SDS011;61070;50.794;7.054;2023-02-22T04:49:23;228.20;;;32.47;;
72924;SDS011;61070;50.794;7.054;2023-02-22T04:51:48;135.18;;;29.40;;
72924;SDS011;61070;50.794;7.054;2023-02-22T04:54:14;159.27;;;29.75;;
72924;SDS011;61070;50.794;7.054;2023-02-22T04:56:42;129.93;;;29.02;;
72924;SDS011;61070;50.794;7.054;2023-02-22T04:59:08;96.43;;;28.60;;
72924;SDS011;61070;50.794;7.054;2023-02-22T05:01:34;69.85;;;27.98;;
72924;SDS011;61070;50.794;7.054;2023-02-22T05:04:01;127.25;;;28.92;;
72924;SDS011;61070;50.794;7.054;2023-02-22T05:06:27;79.60;;;28.48;;
72924;SDS011;61070;50.794;7.054;2023-02-22T05:08:52;73.07;;;27.92;;
72924;SDS011;61070;50.794;7.054;2023-02-22T05:11:18;55.33;;;23.90;;
72924;SDS011;61070;50.794;7.054;2023-02-22T05:13:43;54.97;;;23.50;;
72924;SDS011;61070;50.794;7.054;2023-02-22T05:16:08;52.40;;;21.40;;
72924;SDS011;61070;50.794;7.054;2023-02-22T05:18:34;51.45;;;22.42;;
72924;SDS011;61070;50.794;7.054;2023-02-22T05:20:59;47.47;;;20.35;;
72924;SDS011;61070;50.794;7.054;2023-02-22T05:23:24;44.42;;;21.02;;
72924;SDS011;61070;50.794;7.054;2023-02-22T05:25:49;48.10;;;21.60;;
72924;SDS011;61070;50.794;7.054;2023-02-22T05:28:15;35.80;;;17.70;;
72924;SDS011;61070;50.794;7.054;2023-02-22T05:30:40;37.95;;;19.00;;
72924;SDS011;61070;50.794;7.054;2023-02-22T05:33:06;37.80;;;18.52;;
72924;SDS011;61070;50.794;7.054;2023-02-22T05:35:32;43.42;;;19.48;;
72924;SDS011;61070;50.794;7.054;2023-02-22T05:37:58;42.03;;;19.70;;
72924;SDS011;61070;50.794;7.054;2023-02-22T05:40:26;43.25;;;19.42;;
72924;SDS011;61070;50.794;7.054;2023-02-22T05:42:52;44.20;;;19.33;;
72924;SDS011;61070;50.794;7.054;2023-02-22T05:45:20;35.67;;;17.30;;
72924;SDS011;61070;50.794;7.054;2023-02-22T05:47:46;33.15;;;16.75;;
72924;SDS011;61070;50.794;7.054;2023-02-22T05:50:12;37.47;;;18.23;;
72924;SDS011;61070;50.794;7.054;2023-02-22T05:52:38;40.50;;;19.08;;
72924;SDS011;61070;50.794;7.054;2023-02-22T05:55:04;38.88;;;17.33;;
72924;SDS011;61070;50.794;7.054;2023-02-22T05:57:30;46.92;;;19.42;;
72924;SDS011;61070;50.794;7.054;2023-02-22T05:59:55;51.67;;;19.10;;
72924;SDS011;61070;50.794;7.054;2023-02-22T06:02:21;54.00;;;22.02;;
72924;SDS011;61070;50.794;7.054;2023-02-22T06:04:46;57.88;;;21.45;;
72924;SDS011;61070;50.794;7.054;2023-02-22T06:07:12;58.97;;;23.70;;
72924;SDS011;61070;50.794;7.054;2023-02-22T06:09:38;63.15;;;23.98;;
72924;SDS011;61070;50.794;7.054;2023-02-22T06:12:04;53.30;;;22.20;;
72924;SDS011;61070;50.794;7.054;2023-02-22T06:14:30;50.45;;;21.13;;
72924;SDS011;61070;50.794;7.054;2023-02-22T06:16:57;47.10;;;19.63;;
72924;SDS011;61070;50.794;7.054;2023-02-22T06:19:23;50.40;;;18.70;;
72924;SDS011;61070;50.794;7.054;2023-02-22T06:21:55;40.63;;;19.33;;
72924;SDS011;61070;50.794;7.054;2023-02-22T06:24:23;40.20;;;18.55;;
72924;SDS011;61070;50.794;7.054;2023-02-22T06:26:53;38.80;;;17.52;;
72924;SDS011;61070;50.794;7.054;2023-02-22T06:29:22;35.85;;;17.98;;
72924;SDS011;61070;50.794;7.054;2023-02-22T06:31:49;36.55;;;17.70;;
72924;SDS011;61070;50.794;7.054;2023-02-22T06:34:14;33.30;;;16.63;;
72924;SDS011;61070;50.794;7.054;2023-02-22T06:36:40;37.85;;;17.42;;
72924;SDS011;61070;50.794;7.054;2023-02-22T06:39:06;35.58;;;17.25;;
72924;SDS011;61070;50.794;7.054;2023-02-22T06:41:35;35.15;;;16.85;;
72924;SDS011;61070;50.794;7.054;2023-02-22T06:44:01;34.45;;;16.83;;
72924;SDS011;61070;50.794;7.054;2023-02-22T06:46:27;35.47;;;16.88;;
72924;SDS011;61070;50.794;7.054;2023-02-22T06:48:52;35.78;;;16.85;;
72924;SDS011;61070;50.794;7.054;2023-02-22T06:51:17;39.75;;;18.10;;
72924;SDS011;61070;50.794;7.054;2023-02-22T06:53:43;35.05;;;17.50;;
72924;SDS011;61070;50.794;7.054;2023-02-22T06:56:08;34.92;;;16.67;;
72924;SDS011;61070;50.794;7.054;2023-02-22T06:58:34;32.65;;;15.25;;
72924;SDS011;61070;50.794;7.054;2023-02-22T07:00:59;28.27;;;15.13;;
72924;SDS011;61070;50.794;7.054;2023-02-22T07:03:26;33.00;;;15.30;;
72924;SDS011;61070;50.794;7.054;2023-02-22T07:05:51;28.92;;;13.73;;
72924;SDS011;61070;50.794;7.054;2023-02-22T07:08:17;31.38;;;15.25;;
72924;SDS011;61070;50.794;7.054;2023-02-22T07:10:42;33.17;;;15.77;;
72924;SDS011;61070;50.794;7.054;2023-02-22T07:13:07;31.73;;;15.35;;
72924;SDS011;61070;50.794;7.054;2023-02-22T07:15:33;35.40;;;16.52;;
72924;SDS011;61070;50.794;7.054;2023-02-22T07:18:00;30.10;;;15.50;;
72924;SDS011;61070;50.794;7.054;2023-02-22T07:20:27;36.92;;;16.38;;
72924;SDS011;61070;50.794;7.054;2023-02-22T07:22:53;32.35;;;14.68;;
72924;SDS011;61070;50.794;7.054;2023-02-22T07:25:19;30.05;;;15.57;;
72924;SDS011;61070;50.794;7.054;2023-02-22T07:27:45;28.85;;;15.68;;
72924;SDS011;61070;50.794;7.054;2023-02-22T07:30:18;32.72;;;15.88;;
72924;SDS011;61070;50.794;7.054;2023-02-22T07:32:49;36.00;;;16.45;;
72924;SDS011;61070;50.794;7.054;2023-02-22T07:35:16;33.63;;;16.17;;
72924;SDS011;61070;50.794;7.054;2023-02-22T07:37:43;34.65;;;16.77;;
72924;SDS011;61070;50.794;7.054;2023-02-22T07:40:09;30.92;;;16.13;;
72924;SDS011;61070;50.794;7.054;2023-02-22T07:45:22;37.35;;;17.35;;
72924;SDS011;61070;50.794;7.054;2023-02-22T07:47:50;36.88;;;16.83;;
72924;SDS011;61070;50.794;7.054;2023-02-22T07:50:15;31.35;;;15.32;;
72924;SDS011;61070;50.794;7.054;2023-02-22T07:52:49;35.78;;;15.43;;
72924;SDS011;61070;50.794;7.054;2023-02-22T07:55:16;37.45;;;17.45;;
72924;SDS011;61070;50.794;7.054;2023-02-22T07:57:44;38.50;;;16.27;;
72924;SDS011;61070;50.794;7.054;2023-02-22T08:00:10;39.00;;;17.10;;
72924;SDS011;61070;50.794;7.054;2023-02-22T08:02:38;31.65;;;15.93;;
72924;SDS011;61070;50.794;7.054;2023-02-22T08:05:06;40.83;;;16.60;;
72924;SDS011;61070;50.794;7.054;2023-02-22T08:07:32;40.80;;;18.77;;
72924;SDS011;61070;50.794;7.054;2023-02-22T08:09:57;58.05;;;17.63;;
72924;SDS011;61070;50.794;7.054;2023-02-22T08:12:23;42.17;;;17.75;;
72924;SDS011;61070;50.794;7.054;2023-02-22T08:14:48;33.55;;;15.63;;
72924;SDS011;61070;50.794;7.054;2023-02-22T08:17:13;39.50;;;18.42;;
72924;SDS011;61070;50.794;7.054;2023-02-22T08:19:38;34.38;;;17.27;;
72924;SDS011;61070;50.794;7.054;2023-02-22T08:22:04;43.58;;;18.60;;
72924;SDS011;61070;50.794;7.054;2023-02-22T08:24:29;40.08;;;18.50;;
72924;SDS011;61070;50.794;7.054;2023-02-22T08:26:56;44.65;;;18.17;;
72924;SDS011;61070;50.794;7.054;2023-02-22T08:29:21;39.38;;;18.10;;
72924;SDS011;61070;50.794;7.054;2023-02-22T08:31:50;43.08;;;18.38;;
72924;SDS011;61070;50.794;7.054;2023-02-22T08:34:18;45.63;;;18.83;;
72924;SDS011;61070;50.794;7.054;2023-02-22T08:36:43;47.25;;;18.73;;
72924;SDS011;61070;50.794;7.054;2023-02-22T08:39:09;41.45;;;19.52;;
72924;SDS011;61070;50.794;7.054;2023-02-22T08:41:34;42.47;;;18.83;;
72924;SDS011;61070;50.794;7.054;2023-02-22T08:43:59;42.95;;;19.55;;
72924;SDS011;61070;50.794;7.054;2023-02-22T08:46:26;42.17;;;20.20;;
72924;SDS011;61070;50.794;7.054;2023-02-22T08:48:52;41.85;;;20.02;;
72924;SDS011;61070;50.794;7.054;2023-02-22T08:51:17;48.00;;;19.88;;
72924;SDS011;61070;50.794;7.054;2023-02-22T08:53:43;52.88;;;21.38;;
72924;SDS011;61070;50.794;7.054;2023-02-22T08:56:09;44.72;;;21.08;;
72924;SDS011;61070;50.794;7.054;2023-02-22T08:58:36;43.53;;;20.83;;
72924;SDS011;61070;50.794;7.054;2023-02-22T09:01:01;44.38;;;20.95;;
72924;SDS011;61070;50.794;7.054;2023-02-22T09:03:26;45.65;;;21.55;;
72924;SDS011;61070;50.794;7.054;2023-02-22T09:05:52;54.22;;;23.70;;
72924;SDS011;61070;50.794;7.054;2023-02-22T09:08:17;49.20;;;22.70;;
72924;SDS011;61070;50.794;7.054;2023-02-22T09:10:42;50.53;;;22.73;;
72924;SDS011;61070;50.794;7.054;2023-02-22T09:13:09;50.63;;;21.83;;
72924;SDS011;61070;50.794;7.054;2023-02-22T09:15:36;43.88;;;22.83;;
72924;SDS011;61070;50.794;7.054;2023-02-22T09:18:03;45.50;;;21.55;;
72924;SDS011;61070;50.794;7.054;2023-02-22T09:20:32;41.60;;;21.83;;
72924;SDS011;61070;50.794;7.054;2023-02-22T09:23:00;50.95;;;22.90;;
72924;SDS011;61070;50.794;7.054;2023-02-22T09:25:27;46.58;;;22.95;;
72924;SDS011;61070;50.794;7.054;2023-02-22T09:27:53;42.42;;;20.65;;
72924;SDS011;61070;50.794;7.054;2023-02-22T09:30:29;45.53;;;21.15;;
72924;SDS011;61070;50.794;7.054;2023-02-22T09:33:08;54.63;;;22.65;;
72924;SDS011;61070;50.794;7.054;2023-02-22T09:35:38;44.15;;;22.23;;
72924;SDS011;61070;50.794;7.054;2023-02-22T09:38:06;42.58;;;21.95;;
72924;SDS011;61070;50.794;7.054;2023-02-22T09:40:34;41.80;;;19.77;;
72924;SDS011;61070;50.794;7.054;2023-02-22T09:46:08;42.72;;;20.42;;
72924;SDS011;61070;50.794;7.054;2023-02-22T09:49:16;38.55;;;19.30;;
72924;SDS011;61070;50.794;7.054;2023-02-22T09:51:54;38.55;;;18.17;;
72924;SDS011;61070;50.794;7.054;2023-02-22T09:57:03;35.58;;;17.20;;
72924;SDS011;61070;50.794;7.054;2023-02-22T10:02:03;35.65;;;17.80;;
72924;SDS011;61070;50.794;7.054;2023-02-22T10:04:44;44.17;;;18.30;;
72924;SDS011;61070;50.794;7.054;2023-02-22T10:07:19;29.35;;;16.48;;
72924;SDS011;61070;50.794;7.054;2023-02-22T10:09:51;37.38;;;16.83;;
72924;SDS011;61070;50.794;7.054;2023-02-22T10:15:00;38.17;;;16.08;;
72924;SDS011;61070;50.794;7.054;2023-02-22T10:31:40;32.08;;;12.55;;
72924;SDS011;61070;50.794;7.054;2023-02-22T10:34:14;25.85;;;13.15;;
72924;SDS011;61070;50.794;7.054;2023-02-22T10:36:45;25.98;;;12.32;;
72924;SDS011;61070;50.794;7.054;2023-02-22T10:41:51;23.23;;;11.60;;
72924;SDS011;61070;50.794;7.054;2023-02-22T10:44:20;19.02;;;10.20;;
72924;SDS011;61070;50.794;7.054;2023-02-22T10:46:46;20.45;;;9.43;;
72924;SDS011;61070;50.794;7.054;2023-02-22T10:49:14;21.35;;;9.63;;
72924;SDS011;61070;50.794;7.054;2023-02-22T10:51:47;20.45;;;8.10;;
72924;SDS011;61070;50.794;7.054;2023-02-22T10:54:23;14.50;;;8.10;;
72924;SDS011;61070;50.794;7.054;2023-02-22T10:56:53;16.42;;;8.35;;
72924;SDS011;61070;50.794;7.054;2023-02-22T10:59:27;17.48;;;7.28;;
72924;SDS011;61070;50.794;7.054;2023-02-22T11:01:56;14.50;;;7.53;;
72924;SDS011;61070;50.794;7.054;2023-02-22T11:04:22;12.07;;;7.43;;
72924;SDS011;61070;50.794;7.054;2023-02-22T11:09:24;18.27;;;7.78;;
72924;SDS011;61070;50.794;7.054;2023-02-22T11:12:09;17.42;;;7.88;;
72924;SDS011;61070;50.794;7.054;2023-02-22T11:14:39;13.98;;;7.38;;
72924;SDS011;61070;50.794;7.054;2023-02-22T11:17:07;13.68;;;7.18;;
72924;SDS011;61070;50.794;7.054;2023-02-22T11:19:36;15.63;;;7.32;;
72924;SDS011;61070;50.794;7.054;2023-02-22T11:22:10;16.05;;;8.25;;
72924;SDS011;61070;50.794;7.054;2023-02-22T11:24:52;16.02;;;8.15;;
72924;SDS011;61070;50.794;7.054;2023-02-22T11:29:50;17.35;;;8.30;;
72924;SDS011;61070;50.794;7.054;2023-02-22T11:32:18;17.67;;;8.70;;
72924;SDS011;61070;50.794;7.054;2023-02-22T11:34:46;17.63;;;8.30;;
72924;SDS011;61070;50.794;7.054;2023-02-22T11:39:46;19.70;;;8.60;;
72924;SDS011;61070;50.794;7.054;2023-02-22T11:42:25;15.00;;;9.10;;
72924;SDS011;61070;50.794;7.054;2023-02-22T11:50:28;20.75;;;8.65;;
72924;SDS011;61070;50.794;7.054;2023-02-22T11:55:38;17.90;;;8.40;;
72924;SDS011;61070;50.794;7.054;2023-02-22T11:58:43;16.20;;;8.65;;
72924;SDS011;61070;50.794;7.054;2023-02-22T12:01:28;16.77;;;8.35;;
72924;SDS011;61070;50.794;7.054;2023-02-22T12:21:17;17.25;;;8.38;;
72924;SDS011;61070;50.794;7.054;2023-02-22T12:23:48;18.02;;;8.70;;
72924;SDS011;61070;50.794;7.054;2023-02-22T12:26:24;14.13;;;7.45;;
72924;SDS011;61070;50.794;7.054;2023-02-22T12:28:56;15.13;;;8.05;;
72924;SDS011;61070;50.794;7.054;2023-02-22T12:42:38;13.68;;;7.50;;
72924;SDS011;61070;50.794;7.054;2023-02-22T12:45:40;14.48;;;8.02;;
72924;SDS011;61070;50.794;7.054;2023-02-22T12:53:40;16.23;;;8.00;;
72924;SDS011;61070;50.794;7.054;2023-02-22T12:58:54;20.67;;;8.15;;
72924;SDS011;61070;50.794;7.054;2023-02-22T13:01:27;17.08;;;8.10;;
72924;SDS011;61070;50.794;7.054;2023-02-22T13:04:00;16.05;;;8.45;;
72924;SDS011;61070;50.794;7.054;2023-02-22T13:12:11;17.83;;;9.13;;
72924;SDS011;61070;50.794;7.054;2023-02-22T13:19:57;17.27;;;9.18;;
72924;SDS011;61070;50.794;7.054;2023-02-22T13:22:29;17.35;;;9.63;;
72924;SDS011;61070;50.794;7.054;2023-02-22T13:28:27;15.75;;;8.80;;
72924;SDS011;61070;50.794;7.054;2023-02-22T13:33:36;17.52;;;9.52;;
72924;SDS011;61070;50.794;7.054;2023-02-22T13:41:50;17.60;;;8.88;;
72924;SDS011;61070;50.794;7.054;2023-02-22T13:49:53;16.45;;;10.23;;
72924;SDS011;61070;50.794;7.054;2023-02-22T13:52:27;16.42;;;9.38;;
72924;SDS011;61070;50.794;7.054;2023-02-22T13:55:05;16.08;;;9.35;;
72924;SDS011;61070;50.794;7.054;2023-02-22T13:57:45;14.60;;;8.38;;
72924;SDS011;61070;50.794;7.054;2023-02-22T14:08:51;13.85;;;8.63;;
72924;SDS011;61070;50.794;7.054;2023-02-22T14:16:19;17.45;;;9.52;;
72924;SDS011;61070;50.794;7.054;2023-02-22T14:21:26;19.05;;;9.77;;
72924;SDS011;61070;50.794;7.054;2023-02-22T14:26:31;21.55;;;11.18;;
72924;SDS011;61070;50.794;7.054;2023-02-22T14:31:28;20.17;;;10.15;;
72924;SDS011;61070;50.794;7.054;2023-02-22T14:36:50;19.13;;;10.60;;
72924;SDS011;61070;50.794;7.054;2023-02-22T14:39:19;18.90;;;10.63;;
72924;SDS011;61070;50.794;7.054;2023-02-22T14:42:01;17.92;;;9.73;;
72924;SDS011;61070;50.794;7.054;2023-02-22T14:45:33;19.67;;;10.00;;
72924;SDS011;61070;50.794;7.054;2023-02-22T14:47:43;19.08;;;10.30;;
72924;SDS011;61070;50.794;7.054;2023-02-22T14:50:26;26.15;;;11.43;;
72924;SDS011;61070;50.794;7.054;2023-02-22T14:53:21;19.42;;;10.18;;
72924;SDS011;61070;50.794;7.054;2023-02-22T14:55:52;20.23;;;10.60;;
72924;SDS011;61070;50.794;7.054;2023-02-22T14:58:24;18.33;;;10.02;;
72924;SDS011;61070;50.794;7.054;2023-02-22T15:06:45;19.77;;;11.02;;
72924;SDS011;61070;50.794;7.054;2023-02-22T15:09:14;18.52;;;10.98;;
72924;SDS011;61070;50.794;7.054;2023-02-22T15:11:48;21.45;;;10.48;;
72924;SDS011;61070;50.794;7.054;2023-02-22T15:14:36;19.63;;;11.05;;
72924;SDS011;61070;50.794;7.054;2023-02-22T15:17:05;24.42;;;10.85;;
72924;SDS011;61070;50.794;7.054;2023-02-22T15:19:33;20.02;;;10.93;;
72924;SDS011;61070;50.794;7.054;2023-02-22T15:22:02;21.98;;;11.27;;
72924;SDS011;61070;50.794;7.054;2023-02-22T15:24:33;20.90;;;10.38;;
72924;SDS011;61070;50.794;7.054;2023-02-22T15:27:04;18.38;;;10.68;;
72924;SDS011;61070;50.794;7.054;2023-02-22T15:29:34;25.70;;;11.60;;
72924;SDS011;61070;50.794;7.054;2023-02-22T15:32:01;18.83;;;10.13;;
72924;SDS011;61070;50.794;7.054;2023-02-22T15:34:28;21.02;;;11.20;;
72924;SDS011;61070;50.794;7.054;2023-02-22T15:36:54;20.58;;;11.10;;
72924;SDS011;61070;50.794;7.054;2023-02-22T15:39:26;21.02;;;11.55;;
72924;SDS011;61070;50.794;7.054;2023-02-22T15:42:09;20.75;;;10.70;;
72924;SDS011;61070;50.794;7.054;2023-02-22T15:44:45;20.10;;;11.27;;
72924;SDS011;61070;50.794;7.054;2023-02-22T15:47:20;22.58;;;11.55;;
72924;SDS011;61070;50.794;7.054;2023-02-22T15:53:07;21.50;;;11.48;;
72924;SDS011;61070;50.794;7.054;2023-02-22T15:55:53;20.42;;;11.40;;
72924;SDS011;61070;50.794;7.054;2023-02-22T15:58:21;20.95;;;11.23;;
72924;SDS011;61070;50.794;7.054;2023-02-22T16:00:59;20.10;;;11.68;;
72924;SDS011;61070;50.794;7.054;2023-02-22T16:06:23;22.60;;;12.05;;
72924;SDS011;61070;50.794;7.054;2023-02-22T16:08:52;20.80;;;11.82;;
72924;SDS011;61070;50.794;7.054;2023-02-22T16:11:23;20.27;;;11.55;;
72924;SDS011;61070;50.794;7.054;2023-02-22T16:14:03;21.20;;;12.50;;
72924;SDS011;61070;50.794;7.054;2023-02-22T16:16:33;25.13;;;13.23;;
72924;SDS011;61070;50.794;7.054;2023-02-22T16:19:23;28.58;;;12.40;;
72924;SDS011;61070;50.794;7.054;2023-02-22T16:21:57;24.15;;;11.80;;
72924;SDS011;61070;50.794;7.054;2023-02-22T16:24:34;24.92;;;13.32;;
72924;SDS011;61070;50.794;7.054;2023-02-22T16:27:01;26.83;;;12.80;;
72924;SDS011;61070;50.794;7.054;2023-02-22T16:29:39;21.88;;;11.68;;
72924;SDS011;61070;50.794;7.054;2023-02-22T16:32:05;20.23;;;12.35;;
72924;SDS011;61070;50.794;7.054;2023-02-22T16:34:30;23.02;;;12.98;;
72924;SDS011;61070;50.794;7.054;2023-02-22T16:36:56;23.50;;;12.65;;
72924;SDS011;61070;50.794;7.054;2023-02-22T16:39:23;20.77;;;12.30;;
72924;SDS011;61070;50.794;7.054;2023-02-22T16:41:51;19.50;;;12.02;;
72924;SDS011;61070;50.794;7.054;2023-02-22T16:44:18;21.55;;;12.43;;
72924;SDS011;61070;50.794;7.054;2023-02-22T16:46:43;24.63;;;13.00;;
72924;SDS011;61070;50.794;7.054;2023-02-22T16:49:09;31.63;;;13.95;;
72924;SDS011;61070;50.794;7.054;2023-02-22T16:54:08;27.48;;;14.52;;
72924;SDS011;61070;50.794;7.054;2023-02-22T16:56:36;27.10;;;13.48;;
72924;SDS011;61070;50.794;7.054;2023-02-22T16:59:05;25.38;;;14.07;;
72924;SDS011;61070;50.794;7.054;2023-02-22T17:01:35;22.77;;;13.73;;
72924;SDS011;61070;50.794;7.054;2023-02-22T17:04:00;27.65;;;13.90;;
72924;SDS011;61070;50.794;7.054;2023-02-22T17:06:26;25.80;;;13.93;;
72924;SDS011;61070;50.794;7.054;2023-02-22T17:08:53;25.63;;;14.70;;
72924;SDS011;61070;50.794;7.054;2023-02-22T17:11:18;23.08;;;13.75;;
72924;SDS011;61070;50.794;7.054;2023-02-22T17:13:43;26.27;;;15.15;;
72924;SDS011;61070;50.794;7.054;2023-02-22T17:16:14;91.75;;;40.05;;
72924;SDS011;61070;50.794;7.054;2023-02-22T17:18:39;62.85;;;26.30;;
72924;SDS011;61070;50.794;7.054;2023-02-22T17:21:05;62.50;;;25.25;;
72924;SDS011;61070;50.794;7.054;2023-02-22T17:23:31;42.00;;;20.02;;
72924;SDS011;61070;50.794;7.054;2023-02-22T17:25:58;34.08;;;16.70;;
72924;SDS011;61070;50.794;7.054;2023-02-22T17:28:26;27.20;;;15.25;;
72924;SDS011;61070;50.794;7.054;2023-02-22T17:30:52;31.67;;;15.18;;
72924;SDS011;61070;50.794;7.054;2023-02-22T17:33:20;32.13;;;17.13;;